Time;durP1;ratioP1;P1;durP2;ratioP2;P2;SDS_P1;SDS_P2;PMS_P1;PMS_P2;Temp;Humidity;BMP_temperature;BMP_pressure;BME280_temperature;BME280_humidity;BME280_pressure;Samples;Min_cycle;Max_cycle;Signal;HPM_P1;HPM_P2
2023/05/26 00:01:15;;;;;;;7.33;2.13;;;10.30;99.90;;;;;;4961662;28;20580;-86
2023/05/26 00:03:44;;;;;;;19.13;2.20;;;10.30;99.90;;;;;;4994694;28;20242;-85
2023/05/26 00:06:14;;;;;;;4.13;2.13;;;10.20;99.90;;;;;;4994606;28;20215;-85
2023/05/26 00:08:40;;;;;;;1.17;1.07;;;10.20;99.90;;;;;;4994405;28;20191;-85
2023/05/26 00:11:07;;;;;;;6.77;2.23;;;10.20;99.90;;;;;;4994654;28;20210;-87
2023/05/26 00:13:33;;;;;;;14.57;2.50;;;10.20;99.90;;;;;;4977745;28;20231;-85
2023/05/26 00:16:00;;;;;;;3.53;1.30;;;10.20;99.90;;;;;;4993551;28;20226;-86
2023/05/26 00:18:26;;;;;;;8.60;1.13;;;10.20;99.90;;;;;;4977184;28;20251;-85
2023/05/26 00:20:53;;;;;;;2.97;1.53;;;10.20;99.90;;;;;;4993184;28;20234;-87
2023/05/26 00:23:19;;;;;;;1.67;1.07;;;10.30;99.90;;;;;;4961733;28;20180;-85
2023/05/26 00:25:45;;;;;;;12.60;2.73;;;10.30;99.90;;;;;;5010851;28;20226;-87
2023/05/26 00:28:10;;;;;;;7.47;2.13;;;10.30;99.90;;;;;;5011564;28;20231;-84
2023/05/26 00:30:36;;;;;;;3.73;2.47;;;10.30;99.90;;;;;;4977782;28;20632;-84
2023/05/26 00:33:02;;;;;;;3.60;1.83;;;10.30;99.90;;;;;;4954734;28;20232;-85
2023/05/26 00:35:27;;;;;;;4.07;2.00;;;10.20;99.90;;;;;;4972857;28;20185;-84
2023/05/26 00:37:53;;;;;;;3.00;1.83;;;10.20;99.90;;;;;;4971026;28;20251;-84
2023/05/26 00:40:19;;;;;;;5.73;2.57;;;10.10;99.90;;;;;;4923906;28;20232;-86
2023/05/26 00:42:45;;;;;;;2.17;1.80;;;10.10;99.90;;;;;;4939119;28;20226;-86
2023/05/26 00:45:11;;;;;;;8.33;1.80;;;10.00;99.90;;;;;;4955345;28;20700;-86
2023/05/26 00:47:36;;;;;;;5.73;1.17;;;9.90;99.90;;;;;;4971064;28;20189;-86
2023/05/26 00:50:03;;;;;;;11.43;1.90;;;9.90;99.90;;;;;;4971515;28;20223;-87
2023/05/26 00:52:29;;;;;;;2.30;1.70;;;9.90;99.90;;;;;;4970789;28;20260;-86
2023/05/26 00:54:56;;;;;;;3.97;2.43;;;9.90;99.90;;;;;;4954866;28;20231;-85
2023/05/26 00:57:22;;;;;;;4.77;2.20;;;9.90;99.90;;;;;;4951481;28;20239;-85
2023/05/26 00:59:49;;;;;;;11.27;1.03;;;9.90;99.90;;;;;;4938903;28;20523;-87
2023/05/26 01:02:15;;;;;;;2.77;1.60;;;9.90;99.90;;;;;;4972396;28;20199;-86
2023/05/26 01:04:41;;;;;;;1.13;0.63;;;9.80;99.90;;;;;;4954897;28;20216;-86
2023/05/26 01:07:07;;;;;;;8.83;1.70;;;9.80;99.90;;;;;;4942682;28;20686;-85
2023/05/26 01:09:33;;;;;;;3.13;1.70;;;9.80;99.90;;;;;;4922751;28;20219;-85
2023/05/26 01:12:14;;;;;;;5.77;1.07;;;9.70;99.90;;;;;;4923176;28;20217;-86
2023/05/26 01:15:06;;;;;;;0.83;0.83;;;9.70;99.90;;;;;;4971766;28;20180;-85
2023/05/26 01:17:44;;;;;;;3.80;1.90;;;9.70;99.90;;;;;;4969819;28;20220;-85
2023/05/26 01:20:24;;;;;;;14.03;1.83;;;9.60;99.90;;;;;;4971202;28;20672;-85
2023/05/26 01:23:05;;;;;;;1.57;1.13;;;9.60;99.90;;;;;;4971393;28;20300;-85
2023/05/26 01:25:52;;;;;;;4.93;1.13;;;9.60;99.90;;;;;;4970485;28;20309;-84
2023/05/26 01:28:37;;;;;;;3.27;1.27;;;9.60;99.90;;;;;;4971543;28;20386;-85
2023/05/26 01:31:03;;;;;;;1.80;0.97;;;9.50;99.90;;;;;;4970464;28;20209;-86
2023/05/26 01:33:29;;;;;;;3.90;1.63;;;9.50;99.90;;;;;;4954518;28;20236;-86
2023/05/26 01:35:54;;;;;;;2.00;1.80;;;9.50;99.90;;;;;;4970069;28;20298;-86
2023/05/26 01:38:21;;;;;;;2.67;1.33;;;9.60;99.90;;;;;;4971154;28;20212;-85
2023/05/26 01:40:53;;;;;;;4.03;2.00;;;9.60;99.90;;;;;;4969252;28;20226;-86
2023/05/26 01:43:32;;;;;;;4.77;1.47;;;9.60;99.90;;;;;;4970021;28;20220;-85
2023/05/26 01:46:07;;;;;;;6.57;1.20;;;9.60;99.90;;;;;;4971183;28;20584;-84
2023/05/26 01:48:36;;;;;;;3.17;1.07;;;9.60;99.90;;;;;;4969893;28;20875;-85
2023/05/26 01:51:04;;;;;;;3.17;1.87;;;9.60;99.90;;;;;;4969818;28;20219;-85
2023/05/26 01:53:32;;;;;;;2.27;1.90;;;9.60;99.90;;;;;;4971640;28;20726;-86
2023/05/26 01:55:59;;;;;;;2.60;0.50;;;9.60;99.90;;;;;;4971562;28;20212;-86
2023/05/26 01:58:25;;;;;;;3.57;1.87;;;9.60;99.90;;;;;;4970048;28;20228;-85
2023/05/26 02:00:52;;;;;;;5.03;1.97;;;9.70;99.90;;;;;;4939560;28;20636;-85
2023/05/26 02:03:18;;;;;;;1.23;0.87;;;9.80;99.90;;;;;;4974348;28;20282;-85
2023/05/26 02:05:44;;;;;;;3.10;0.63;;;9.90;99.90;;;;;;4974398;28;20655;-86
2023/05/26 02:08:10;;;;;;;2.50;1.93;;;10.00;99.90;;;;;;4974782;28;20189;-85
2023/05/26 02:10:37;;;;;;;1.87;1.23;;;10.10;99.90;;;;;;4974118;28;20361;-86
2023/05/26 02:13:02;;;;;;;4.10;1.80;;;10.00;99.90;;;;;;4957000;28;20217;-86
2023/05/26 02:15:29;;;;;;;4.70;1.73;;;10.00;99.90;;;;;;4988349;28;20685;-87
2023/05/26 02:17:57;;;;;;;1.63;1.53;;;10.00;99.90;;;;;;4971992;28;20229;-86
2023/05/26 02:20:23;;;;;;;6.97;1.03;;;10.00;99.90;;;;;;4957162;28;20195;-84
2023/05/26 02:22:50;;;;;;;2.37;1.60;;;10.00;99.90;;;;;;4973550;28;20674;-84
2023/05/26 02:25:16;;;;;;;8.10;1.70;;;10.00;99.90;;;;;;4956428;28;20247;-84
2023/05/26 02:27:42;;;;;;;6.73;1.27;;;10.00;99.90;;;;;;4973759;28;20232;-85
2023/05/26 02:30:08;;;;;;;1.53;1.23;;;10.00;99.90;;;;;;4972917;28;20216;-85
2023/05/26 02:32:37;;;;;;;7.63;2.50;;;9.90;99.90;;;;;;4985025;28;20236;-83
2023/05/26 02:35:06;;;;;;;3.30;1.47;;;9.90;99.90;;;;;;4961818;28;20188;-84
2023/05/26 02:37:32;;;;;;;6.17;2.93;;;9.90;99.90;;;;;;4977199;28;20697;-83
2023/05/26 02:39:58;;;;;;;3.17;1.43;;;9.90;99.90;;;;;;4993744;28;20274;-84
2023/05/26 02:42:23;;;;;;;6.93;1.07;;;9.80;99.90;;;;;;4960942;28;20212;-85
2023/05/26 02:44:50;;;;;;;8.10;1.63;;;9.80;99.90;;;;;;4976594;28;20195;-85
2023/05/26 02:47:15;;;;;;;2.30;1.57;;;9.70;99.90;;;;;;4977052;28;20219;-83
2023/05/26 02:49:42;;;;;;;5.93;2.20;;;9.70;99.90;;;;;;5009041;28;20240;-85
2023/05/26 02:52:08;;;;;;;8.70;1.60;;;9.60;99.90;;;;;;4992696;28;20887;-84
2023/05/26 02:54:34;;;;;;;4.50;1.00;;;9.60;99.90;;;;;;4992735;28;20340;-84
2023/05/26 02:57:00;;;;;;;2.23;1.93;;;9.60;99.90;;;;;;4976268;28;20690;-86
2023/05/26 02:59:26;;;;;;;7.67;1.90;;;9.50;99.90;;;;;;4994200;28;20267;-85
2023/05/26 03:01:51;;;;;;;5.77;1.70;;;9.50;99.90;;;;;;4976512;28;20235;-86
2023/05/26 03:04:17;;;;;;;3.83;1.47;;;9.50;99.90;;;;;;4976272;28;20700;-85
2023/05/26 03:06:43;;;;;;;3.60;1.27;;;9.50;99.90;;;;;;4975817;28;20289;-86
2023/05/26 03:09:09;;;;;;;8.17;1.57;;;9.50;99.90;;;;;;4991823;28;20291;-84
2023/05/26 03:11:35;;;;;;;2.77;2.37;;;9.50;99.90;;;;;;4992311;28;20445;-84
2023/05/26 03:14:00;;;;;;;16.30;1.30;;;9.50;99.90;;;;;;4991826;28;20619;-85
2023/05/26 03:16:27;;;;;;;2.70;1.27;;;9.60;99.90;;;;;;4959766;28;20222;-84
2023/05/26 03:18:53;;;;;;;4.10;1.50;;;9.60;99.90;;;;;;4975892;28;20231;-86
2023/05/26 03:21:19;;;;;;;1.27;0.67;;;9.70;99.90;;;;;;4991229;28;20212;-85
2023/05/26 03:23:45;;;;;;;5.83;1.63;;;9.70;99.90;;;;;;4992671;28;20316;-86
2023/05/26 03:26:11;;;;;;;3.27;2.90;;;9.60;99.90;;;;;;4960190;28;20558;-85
2023/05/26 03:28:37;;;;;;;6.33;1.43;;;9.60;99.90;;;;;;4975610;28;20265;-85
2023/05/26 03:31:03;;;;;;;11.43;2.30;;;9.70;99.90;;;;;;4991103;28;20222;-83
2023/05/26 03:33:30;;;;;;;4.10;1.50;;;9.70;99.90;;;;;;4975079;28;20262;-86
2023/05/26 03:36:00;;;;;;;3.77;1.37;;;9.70;99.90;;;;;;4990966;28;20208;-83
2023/05/26 03:38:26;;;;;;;1.17;1.07;;;9.70;99.90;;;;;;4993508;28;20435;-86
2023/05/26 03:40:52;;;;;;;5.13;1.10;;;9.80;99.90;;;;;;4991683;28;20258;-85
2023/05/26 03:43:18;;;;;;;5.90;1.53;;;9.80;99.90;;;;;;4992905;28;20240;-85
2023/05/26 03:45:44;;;;;;;12.57;1.73;;;9.90;99.90;;;;;;4992494;28;20243;-84
2023/05/26 03:48:12;;;;;;;6.40;1.63;;;9.90;99.90;;;;;;4991789;28;20634;-86
2023/05/26 03:50:43;;;;;;;3.10;1.77;;;9.90;99.90;;;;;;4959815;28;20765;-86
2023/05/26 03:53:10;;;;;;;3.53;1.00;;;9.90;99.90;;;;;;4993126;28;20184;-86
2023/05/26 03:55:36;;;;;;;4.03;1.73;;;9.90;99.90;;;;;;4975414;28;20669;-84
2023/05/26 03:58:03;;;;;;;13.20;1.80;;;9.90;99.90;;;;;;4958805;28;20278;-84
2023/05/26 04:00:31;;;;;;;4.73;1.93;;;10.00;99.90;;;;;;4975142;28;20784;-84
2023/05/26 04:02:58;;;;;;;5.40;1.43;;;10.00;99.90;;;;;;4991326;28;20220;-84
2023/05/26 04:05:24;;;;;;;6.80;1.87;;;10.00;99.90;;;;;;4991986;28;20538;-85
2023/05/26 04:07:50;;;;;;;1.60;1.50;;;10.10;99.90;;;;;;4991487;28;20224;-85
2023/05/26 04:10:16;;;;;;;2.90;0.93;;;10.20;99.90;;;;;;4991082;28;20207;-87
2023/05/26 04:12:42;;;;;;;7.33;2.20;;;10.20;99.90;;;;;;4991045;28;20216;-86
2023/05/26 04:15:09;;;;;;;1.57;0.70;;;10.30;99.90;;;;;;4974804;28;20874;-84
2023/05/26 04:17:35;;;;;;;1.97;1.70;;;10.30;99.90;;;;;;4991216;28;20220;-83
2023/05/26 04:20:10;;;;;;;5.63;1.33;;;10.40;99.90;;;;;;5006615;28;20231;-86
2023/05/26 04:22:40;;;;;;;2.27;0.90;;;10.40;99.90;;;;;;4975366;28;20226;-85
2023/05/26 04:25:09;;;;;;;7.10;0.97;;;10.40;99.90;;;;;;4991588;28;20216;-83
2023/05/26 04:27:35;;;;;;;4.33;1.70;;;10.50;99.90;;;;;;4990565;28;20235;-85
2023/05/26 04:30:02;;;;;;;11.07;2.03;;;10.60;99.90;;;;;;4974350;28;20215;-84
2023/05/26 04:32:29;;;;;;;4.40;1.40;;;10.70;99.90;;;;;;4974876;28;20239;-85
2023/05/26 04:34:58;;;;;;;8.60;1.27;;;10.80;99.90;;;;;;4990475;28;20437;-86
2023/05/26 04:37:24;;;;;;;27.60;2.33;;;10.90;99.90;;;;;;4990829;28;20227;-85
2023/05/26 04:39:50;;;;;;;4.50;0.97;;;11.00;99.90;;;;;;4989801;28;20226;-86
2023/05/26 04:42:16;;;;;;;4.30;1.63;;;11.00;99.90;;;;;;4989372;28;20778;-85
2023/05/26 04:44:43;;;;;;;4.07;1.57;;;11.00;99.90;;;;;;4990956;28;20188;-87
2023/05/26 04:47:09;;;;;;;6.27;2.43;;;11.10;99.90;;;;;;4990394;28;20199;-87
2023/05/26 04:49:38;;;;;;;14.53;2.37;;;11.00;99.90;;;;;;4957520;28;20220;-87
2023/05/26 04:52:04;;;;;;;3.83;1.60;;;11.10;99.90;;;;;;4989604;28;20255;-86
2023/05/26 04:54:30;;;;;;;5.50;1.87;;;11.20;99.90;;;;;;5006601;28;20212;-86
2023/05/26 04:56:56;;;;;;;2.00;1.27;;;11.20;99.90;;;;;;4990167;28;20234;-86
2023/05/26 04:59:22;;;;;;;2.00;1.57;;;11.30;99.90;;;;;;4958799;28;20181;-86
2023/05/26 05:01:48;;;;;;;4.40;0.80;;;11.30;99.90;;;;;;4990582;28;20239;-86
2023/05/26 05:04:14;;;;;;;7.70;1.40;;;11.40;99.90;;;;;;4991181;28;20220;-86
2023/05/26 05:06:40;;;;;;;2.60;1.33;;;11.60;99.90;;;;;;4958016;28;20212;-84
2023/05/26 05:09:06;;;;;;;3.97;1.37;;;11.80;99.90;;;;;;4990210;28;20255;-85
2023/05/26 05:11:32;;;;;;;8.93;1.20;;;11.80;99.90;;;;;;4958787;28;20332;-86
2023/05/26 05:13:57;;;;;;;9.17;1.00;;;11.90;99.90;;;;;;4990066;28;20806;-85
2023/05/26 05:16:23;;;;;;;8.37;1.50;;;12.00;99.90;;;;;;4990160;28;20857;-86
2023/05/26 05:18:49;;;;;;;5.90;2.47;;;12.20;99.90;;;;;;4990166;28;20223;-84
2023/05/26 05:21:16;;;;;;;9.50;1.90;;;12.30;99.90;;;;;;4973705;28;20684;-84
2023/05/26 05:23:41;;;;;;;8.03;1.50;;;12.50;99.90;;;;;;4990150;28;20271;-86
2023/05/26 05:26:07;;;;;;;8.17;1.80;;;12.70;99.90;;;;;;4958477;28;20875;-87
2023/05/26 05:28:35;;;;;;;10.83;2.17;;;12.40;99.90;;;;;;4973858;28;20244;-87
2023/05/26 05:31:01;;;;;;;5.07;1.47;;;12.40;99.90;;;;;;4974069;28;20220;-84
2023/05/26 05:33:27;;;;;;;4.00;1.83;;;13.30;99.90;;;;;;4973684;28;20282;-84
2023/05/26 05:35:53;;;;;;;7.47;2.10;;;14.60;99.90;;;;;;4973299;28;20315;-84
2023/05/26 05:38:19;;;;;;;5.50;1.43;;;15.60;99.90;;;;;;4991220;28;20287;-86
2023/05/26 05:40:45;;;;;;;19.63;1.37;;;15.10;99.90;;;;;;4973570;28;20772;-86
2023/05/26 05:43:11;;;;;;;3.33;1.77;;;15.50;99.90;;;;;;4957549;28;20781;-84
2023/05/26 05:45:37;;;;;;;7.50;2.80;;;15.30;99.90;;;;;;4973158;28;20220;-84
2023/05/26 05:48:02;;;;;;;9.63;1.70;;;15.30;99.90;;;;;;4972410;28;20685;-86
2023/05/26 05:50:28;;;;;;;4.47;1.23;;;15.80;99.90;;;;;;4989052;28;20196;-86
2023/05/26 05:52:54;;;;;;;10.90;1.47;;;15.40;99.90;;;;;;4972582;28;20274;-83
2023/05/26 05:55:20;;;;;;;4.67;1.43;;;15.60;99.90;;;;;;4988414;28;20240;-85
2023/05/26 05:57:46;;;;;;;4.47;1.57;;;16.70;99.90;;;;;;4988993;28;20705;-84
2023/05/26 06:00:12;;;;;;;9.20;2.37;;;16.80;99.90;;;;;;4991170;28;20300;-84
2023/05/26 06:02:38;;;;;;;5.63;1.90;;;17.70;99.90;;;;;;4992650;28;20187;-84
2023/05/26 06:05:04;;;;;;;3.37;1.80;;;18.50;99.90;;;;;;4977621;28;20180;-85
2023/05/26 06:07:30;;;;;;;4.57;1.57;;;19.30;99.90;;;;;;4961583;28;20223;-84
2023/05/26 06:09:57;;;;;;;5.27;1.33;;;19.80;99.90;;;;;;4993488;28;20220;-86
2023/05/26 06:12:23;;;;;;;5.07;1.90;;;18.70;99.90;;;;;;4992063;28;20231;-85
2023/05/26 06:14:49;;;;;;;9.87;1.73;;;19.30;99.90;;;;;;4974628;28;20199;-86
2023/05/26 06:17:15;;;;;;;4.93;1.60;;;19.70;99.90;;;;;;5005890;28;20566;-86
2023/05/26 06:19:40;;;;;;;3.00;1.40;;;19.00;99.90;;;;;;4990144;28;20224;-86
2023/05/26 06:22:06;;;;;;;5.57;1.47;;;19.00;99.90;;;;;;4955381;28;20735;-88
2023/05/26 06:24:32;;;;;;;5.77;1.80;;;19.80;99.90;;;;;;4971576;28;20223;-86
2023/05/26 06:26:58;;;;;;;6.00;1.47;;;19.60;99.90;;;;;;4971164;28;20298;-85
2023/05/26 06:29:24;;;;;;;3.87;1.50;;;19.90;99.90;;;;;;4987963;28;20234;-88
2023/05/26 06:31:49;;;;;;;6.57;2.07;;;20.30;99.90;;;;;;4986986;28;20299;-86
2023/05/26 06:34:15;;;;;;;7.57;2.17;;;19.70;99.90;;;;;;4988515;28;20259;-86
2023/05/26 06:36:41;;;;;;;4.33;1.33;;;19.90;99.90;;;;;;4971378;28;20282;-85
2023/05/26 06:39:07;;;;;;;3.43;1.60;;;17.90;99.90;;;;;;4955145;28;20765;-86
2023/05/26 06:41:32;;;;;;;3.67;2.30;;;17.80;99.90;;;;;;4987242;28;20650;-87
2023/05/26 06:43:58;;;;;;;3.23;1.50;;;18.80;99.90;;;;;;4971671;28;20629;-87
2023/05/26 06:46:24;;;;;;;6.13;1.67;;;19.60;99.90;;;;;;4954850;28;20810;-84
2023/05/26 06:48:50;;;;;;;3.70;2.43;;;19.30;99.90;;;;;;4957987;28;20306;-85
2023/05/26 06:51:16;;;;;;;5.70;1.93;;;19.80;99.90;;;;;;4975693;28;20223;-85
2023/05/26 06:53:41;;;;;;;3.97;2.07;;;19.00;99.90;;;;;;4959362;28;20193;-86
2023/05/26 06:56:07;;;;;;;3.47;1.67;;;18.90;99.90;;;;;;4976139;28;20188;-86
2023/05/26 06:58:33;;;;;;;2.93;1.53;;;18.90;99.90;;;;;;4976064;28;20392;-86
2023/05/26 07:01:01;;;;;;;5.07;1.83;;;19.20;99.90;;;;;;4966455;28;20700;-85
2023/05/26 07:03:27;;;;;;;8.03;1.90;;;19.70;99.90;;;;;;4981117;28;20215;-86
2023/05/26 07:05:54;;;;;;;5.67;1.60;;;17.60;99.90;;;;;;4998713;28;20212;-87
2023/05/26 07:08:20;;;;;;;4.07;1.83;;;16.80;99.90;;;;;;4976515;28;20697;-87
2023/05/26 07:10:46;;;;;;;3.40;1.73;;;17.40;99.90;;;;;;4979055;28;20219;-88
2023/05/26 07:13:13;;;;;;;6.30;1.77;;;19.60;99.90;;;;;;4992664;28;20729;-87
2023/05/26 07:15:43;;;;;;;6.37;1.80;;;20.10;99.90;;;;;;4997039;28;20223;-88
2023/05/26 07:18:09;;;;;;;7.00;2.30;;;20.50;99.90;;;;;;4991574;28;20889;-88
2023/05/26 07:20:35;;;;;;;5.97;1.90;;;19.90;99.90;;;;;;4992619;28;20192;-87
2023/05/26 07:23:01;;;;;;;6.57;1.67;;;18.50;99.90;;;;;;4975299;28;20641;-88
2023/05/26 07:25:28;;;;;;;9.53;1.73;;;19.40;99.90;;;;;;4990878;28;20305;-88
2023/05/26 07:27:54;;;;;;;2.93;1.60;;;19.70;99.90;;;;;;4990712;28;20220;-88
2023/05/26 07:30:20;;;;;;;4.43;1.97;;;20.40;99.90;;;;;;4989277;28;20371;-87
2023/05/26 07:32:46;;;;;;;5.53;1.53;;;19.30;99.90;;;;;;4991754;28;20419;-87
2023/05/26 07:35:12;;;;;;;5.60;2.80;;;18.00;99.90;;;;;;4974116;28;20428;-87
2023/05/26 07:37:38;;;;;;;7.63;1.83;;;16.40;99.90;;;;;;4989539;28;20739;-87
2023/05/26 07:40:04;;;;;;;4.73;1.67;;;16.20;99.90;;;;;;4957665;28;20220;-86
2023/05/26 07:42:31;;;;;;;7.10;1.50;;;17.50;99.90;;;;;;4957638;28;20270;-87
2023/05/26 07:44:56;;;;;;;5.17;1.63;;;19.00;99.90;;;;;;4972775;28;20275;-86
2023/05/26 07:47:23;;;;;;;9.40;2.30;;;20.00;99.90;;;;;;4989583;28;20588;-86
2023/05/26 07:49:49;;;;;;;6.80;1.83;;;20.10;99.90;;;;;;4972890;28;20215;-88
2023/05/26 07:52:15;;;;;;;2.93;1.50;;;20.00;99.90;;;;;;4957200;28;20227;-87
2023/05/26 07:54:41;;;;;;;6.47;1.43;;;19.90;99.90;;;;;;4956307;28;20689;-87
2023/05/26 07:57:07;;;;;;;4.63;2.27;;;19.90;99.90;;;;;;4990945;28;20223;-86
2023/05/26 07:59:33;;;;;;;6.83;2.60;;;17.80;99.90;;;;;;4991394;28;20250;-86
2023/05/26 08:01:59;;;;;;;10.30;2.17;;;18.70;99.90;;;;;;4975205;28;20192;-86
2023/05/26 08:04:24;;;;;;;2.67;1.57;;;19.80;99.90;;;;;;4990988;28;20704;-85
2023/05/26 08:06:50;;;;;;;4.83;1.50;;;20.60;99.90;;;;;;4973655;28;20235;-86
2023/05/26 08:09:16;;;;;;;6.53;1.83;;;21.10;99.90;;;;;;4958170;28;20361;-86
2023/05/26 08:11:42;;;;;;;6.83;1.93;;;20.20;99.90;;;;;;4975249;28;20186;-85
2023/05/26 08:14:08;;;;;;;4.47;2.13;;;19.80;99.90;;;;;;4992005;28;20311;-86
2023/05/26 08:16:33;;;;;;;9.97;1.70;;;20.00;99.90;;;;;;4974741;28;20216;-88
2023/05/26 08:18:59;;;;;;;2.87;1.43;;;19.80;99.90;;;;;;4974554;28;20709;-87
2023/05/26 08:21:25;;;;;;;5.00;1.80;;;20.30;99.90;;;;;;4991219;28;20640;-86
2023/05/26 08:23:51;;;;;;;2.00;1.50;;;20.10;99.90;;;;;;4975531;28;20200;-87
2023/05/26 08:26:17;;;;;;;1.93;1.30;;;20.50;99.90;;;;;;4991754;28;20542;-87
2023/05/26 08:28:43;;;;;;;2.93;1.50;;;20.00;99.90;;;;;;4958860;28;20270;-87
2023/05/26 08:31:09;;;;;;;5.23;1.50;;;20.30;99.90;;;;;;4959334;28;20578;-86
2023/05/26 08:33:35;;;;;;;4.17;1.87;;;20.40;99.90;;;;;;4990134;28;20240;-87
2023/05/26 08:36:00;;;;;;;4.37;1.93;;;20.10;99.90;;;;;;4990355;28;20215;-85
2023/05/26 08:38:26;;;;;;;4.60;1.80;;;19.70;99.90;;;;;;4957827;28;20233;-88
2023/05/26 08:40:56;;;;;;;8.33;2.43;;;19.80;99.90;;;;;;4957229;28;20220;-85
2023/05/26 08:43:28;;;;;;;7.37;1.63;;;17.80;99.90;;;;;;4988933;28;20220;-86
2023/05/26 08:45:55;;;;;;;4.23;1.67;;;16.80;99.90;;;;;;4988876;28;20216;-86
2023/05/26 08:48:22;;;;;;;2.77;1.57;;;17.60;99.90;;;;;;4972523;28;20314;-85
2023/05/26 08:50:54;;;;;;;3.03;1.30;;;18.70;99.90;;;;;;4956667;28;20657;-87
2023/05/26 08:53:23;;;;;;;6.57;1.70;;;19.70;99.90;;;;;;4989542;28;20528;-87
2023/05/26 08:55:50;;;;;;;3.13;2.07;;;19.10;99.90;;;;;;4957058;28;20220;-85
2023/05/26 08:58:16;;;;;;;4.60;2.23;;;19.60;99.90;;;;;;4988766;28;20235;-87
2023/05/26 09:00:45;;;;;;;4.57;1.87;;;18.70;99.90;;;;;;4989222;28;20731;-85
2023/05/26 09:03:11;;;;;;;3.40;1.60;;;18.90;99.90;;;;;;4989471;28;20222;-85
2023/05/26 09:05:37;;;;;;;6.97;1.70;;;18.90;99.90;;;;;;4956719;28;20222;-86
2023/05/26 09:08:04;;;;;;;6.00;1.27;;;17.90;99.90;;;;;;4973176;28;20638;-85
2023/05/26 09:10:32;;;;;;;5.10;1.60;;;18.40;99.90;;;;;;4972341;28;20216;-85
2023/05/26 09:13:08;;;;;;;3.93;1.90;;;19.30;99.90;;;;;;4973578;28;20214;-85
2023/05/26 09:15:36;;;;;;;3.27;1.70;;;19.00;99.90;;;;;;4989588;28;20207;-86
2023/05/26 09:18:07;;;;;;;4.20;2.27;;;18.20;99.90;;;;;;4989617;28;20266;-86
2023/05/26 09:20:46;;;;;;;3.47;1.30;;;17.50;99.90;;;;;;4990378;28;20719;-87
2023/05/26 09:23:14;;;;;;;2.90;1.43;;;18.90;99.90;;;;;;4991675;28;20206;-85
2023/05/26 09:25:41;;;;;;;2.50;1.97;;;18.30;99.90;;;;;;4974380;28;20223;-85
2023/05/26 09:28:09;;;;;;;2.93;1.40;;;18.50;99.90;;;;;;4973825;28;20230;-85
2023/05/26 09:30:37;;;;;;;5.87;2.07;;;18.90;99.90;;;;;;4989131;28;20219;-84
2023/05/26 09:33:05;;;;;;;6.67;1.53;;;18.90;99.90;;;;;;4957339;28;20235;-86
2023/05/26 09:35:38;;;;;;;2.67;1.53;;;19.40;99.90;;;;;;4991274;28;20184;-85
2023/05/26 09:38:05;;;;;;;5.67;1.80;;;19.40;99.90;;;;;;4990057;28;20571;-86
2023/05/26 09:40:31;;;;;;;10.77;2.27;;;20.10;99.90;;;;;;5005319;28;20224;-85
2023/05/26 09:42:57;;;;;;;3.87;1.70;;;20.20;99.90;;;;;;4988311;28;20577;-85
2023/05/26 09:45:23;;;;;;;7.60;1.47;;;19.70;99.90;;;;;;4971985;28;20211;-86
2023/05/26 09:47:56;;;;;;;2.87;1.17;;;19.50;99.90;;;;;;4956137;28;20191;-86
2023/05/26 09:50:22;;;;;;;4.13;1.50;;;19.40;99.90;;;;;;4998645;28;20199;-84
2023/05/26 09:52:49;;;;;;;3.77;1.50;;;18.00;99.90;;;;;;4972774;28;20231;-86
2023/05/26 09:55:15;;;;;;;8.37;1.67;;;19.10;99.90;;;;;;4971663;28;20223;-85
2023/05/26 09:57:43;;;;;;;2.57;1.87;;;20.20;99.90;;;;;;4971650;28;20239;-86
2023/05/26 10:00:10;;;;;;;3.10;1.80;;;20.00;99.90;;;;;;5004092;28;20226;-85
2023/05/26 10:02:37;;;;;;;6.33;2.27;;;20.00;99.90;;;;;;4971947;28;20210;-86
2023/05/26 10:05:03;;;;;;;7.97;1.87;;;19.70;99.90;;;;;;4989272;28;20195;-87
2023/05/26 10:07:30;;;;;;;9.43;2.47;;;18.90;99.90;;;;;;4987995;28;20463;-87
2023/05/26 10:09:58;;;;;;;12.00;1.83;;;18.50;99.90;;;;;;4971856;28;20227;-87
2023/05/26 10:12:27;;;;;;;2.83;1.43;;;18.90;99.90;;;;;;4987808;28;20299;-85
2023/05/26 10:14:53;;;;;;;14.93;2.27;;;19.50;99.90;;;;;;4987934;28;20761;-86
2023/05/26 10:17:23;;;;;;;6.27;2.17;;;19.60;99.90;;;;;;4989676;28;20239;-86
2023/05/26 10:19:49;;;;;;;7.30;2.00;;;19.50;99.90;;;;;;4973769;28;20220;-86
2023/05/26 10:23:05;;;;;;;3.93;1.50;;;18.10;99.90;;;;;;4975158;28;20307;-85
2023/05/26 10:26:08;;;;;;;3.00;1.13;;;18.40;99.90;;;;;;4918089;29;20305;-85
2023/05/26 10:28:42;;;;;;;5.90;1.70;;;18.50;99.90;;;;;;4993754;28;20226;-86
2023/05/26 10:31:08;;;;;;;4.23;1.43;;;18.30;99.90;;;;;;5009202;28;20222;-86
2023/05/26 10:33:41;;;;;;;6.30;1.30;;;17.80;99.90;;;;;;4992270;28;20311;-87
2023/05/26 10:36:08;;;;;;;7.17;1.90;;;18.30;99.90;;;;;;4993233;28;20227;-86
2023/05/26 10:38:42;;;;;;;3.27;1.70;;;18.60;99.90;;;;;;4992695;28;20210;-85
2023/05/26 10:41:12;;;;;;;6.50;2.00;;;18.50;99.90;;;;;;4993679;28;20164;-87
2023/05/26 10:43:39;;;;;;;8.57;2.37;;;17.90;99.90;;;;;;4960595;28;20307;-87
2023/05/26 10:46:05;;;;;;;5.80;1.53;;;18.40;99.90;;;;;;4993958;28;20226;-88
2023/05/26 10:48:38;;;;;;;6.43;1.57;;;18.00;99.90;;;;;;4992878;28;20223;-87
2023/05/26 10:51:09;;;;;;;4.50;1.90;;;17.90;99.90;;;;;;4993207;28;20235;-87
2023/05/26 10:53:46;;;;;;;7.27;1.90;;;18.50;99.90;;;;;;5009844;28;20176;-88
2023/05/26 10:56:14;;;;;;;6.03;1.90;;;18.70;99.90;;;;;;4993928;28;20176;-88
2023/05/26 10:58:51;;;;;;;10.63;2.13;;;18.50;99.90;;;;;;4992389;28;20259;-89
2023/05/26 11:01:26;;;;;;;9.50;1.67;;;18.70;99.90;;;;;;4992773;28;20310;-85
2023/05/26 11:04:09;;;;;;;4.50;2.10;;;18.40;99.90;;;;;;4992734;28;20215;-87
2023/05/26 11:06:59;;;;;;;4.10;1.27;;;18.30;99.90;;;;;;4992554;28;20228;-86
2023/05/26 11:09:28;;;;;;;6.57;1.37;;;16.80;99.90;;;;;;4993796;28;20235;-87
2023/05/26 11:11:58;;;;;;;2.70;2.13;;;17.40;99.90;;;;;;4960123;28;20220;-87
2023/05/26 11:14:34;;;;;;;5.77;2.30;;;17.10;99.90;;;;;;4992361;28;20175;-86
2023/05/26 11:17:01;;;;;;;7.70;1.77;;;17.40;99.90;;;;;;4991125;28;20216;-87
2023/05/26 11:19:33;;;;;;;4.40;2.10;;;17.80;99.90;;;;;;4974639;28;20293;-87
2023/05/26 11:22:10;;;;;;;5.37;2.10;;;17.40;99.90;;;;;;4991788;28;20234;-85
2023/05/26 11:24:36;;;;;;;6.17;1.90;;;17.50;99.90;;;;;;4974505;28;20215;-84
2023/05/26 11:27:03;;;;;;;7.57;2.87;;;17.50;99.90;;;;;;4974050;28;20242;-83
2023/05/26 11:29:30;;;;;;;4.03;2.50;;;17.50;99.90;;;;;;4991679;28;20185;-86
2023/05/26 11:31:56;;;;;;;3.70;1.63;;;17.30;99.90;;;;;;4995083;28;20834;-86
2023/05/26 11:34:22;;;;;;;9.73;2.50;;;16.90;99.90;;;;;;5011223;28;20227;-85
2023/05/26 11:36:53;;;;;;;9.27;2.60;;;17.00;99.90;;;;;;5011877;28;20231;-85
2023/05/26 11:39:21;;;;;;;3.50;1.60;;;17.00;99.90;;;;;;5011577;28;20249;-87
2023/05/26 11:41:47;;;;;;;6.57;2.23;;;16.50;99.90;;;;;;4993852;28;20176;-86
2023/05/26 11:44:13;;;;;;;6.93;2.30;;;16.50;99.90;;;;;;4979529;28;20179;-85
2023/05/26 11:46:40;;;;;;;9.00;2.00;;;16.50;99.90;;;;;;4978825;28;20247;-88
2023/05/26 11:49:13;;;;;;;12.57;2.40;;;16.90;99.90;;;;;;4994801;28;20281;-85
2023/05/26 11:51:50;;;;;;;12.10;2.03;;;17.30;99.90;;;;;;4978270;28;20230;-84
2023/05/26 11:54:17;;;;;;;6.30;1.87;;;16.90;99.90;;;;;;4994664;28;20223;-84
2023/05/26 11:56:45;;;;;;;5.23;1.67;;;17.30;99.90;;;;;;4978055;28;20179;-86
2023/05/26 11:59:16;;;;;;;4.13;1.73;;;17.00;99.90;;;;;;4994968;28;20179;-86
2023/05/26 12:01:42;;;;;;;8.43;2.00;;;17.40;99.90;;;;;;4994671;28;20254;-83
2023/05/26 12:04:08;;;;;;;4.10;2.10;;;17.10;99.90;;;;;;4993879;28;20321;-83
2023/05/26 12:06:40;;;;;;;6.47;2.07;;;17.10;99.90;;;;;;4993451;28;20242;-86
2023/05/26 12:09:19;;;;;;;5.20;1.87;;;16.90;99.90;;;;;;4993740;28;20346;-84
2023/05/26 12:11:46;;;;;;;6.17;3.70;;;16.80;99.90;;;;;;4994005;28;20178;-84
2023/05/26 12:14:13;;;;;;;5.13;1.53;;;17.30;99.90;;;;;;4994345;28;20186;-84
2023/05/26 12:16:46;;;;;;;5.17;1.93;;;17.40;99.90;;;;;;4993871;28;20233;-86
2023/05/26 12:19:15;;;;;;;5.27;1.93;;;16.90;99.90;;;;;;4993675;28;20230;-85
2023/05/26 12:21:44;;;;;;;13.00;2.27;;;17.10;99.90;;;;;;4993793;28;20855;-85
2023/05/26 12:24:10;;;;;;;9.80;3.00;;;17.00;99.90;;;;;;4993654;28;20290;-85
2023/05/26 12:26:36;;;;;;;4.53;2.33;;;16.90;99.90;;;;;;4977220;28;20184;-84
2023/05/26 12:29:08;;;;;;;4.07;1.77;;;16.90;99.90;;;;;;4993900;28;20266;-82
2023/05/26 12:31:38;;;;;;;6.90;1.60;;;16.80;99.90;;;;;;4992056;28;20869;-82
2023/05/26 12:34:04;;;;;;;4.57;2.07;;;17.20;99.90;;;;;;5008999;28;20262;-85
2023/05/26 12:36:30;;;;;;;2.83;2.00;;;17.30;99.90;;;;;;4976531;28;20238;-82
2023/05/26 12:38:55;;;;;;;5.93;2.23;;;17.20;99.90;;;;;;4992672;28;20707;-82
2023/05/26 12:41:21;;;;;;;7.67;2.47;;;17.10;99.90;;;;;;4977461;28;20176;-84
2023/05/26 12:43:47;;;;;;;4.33;1.80;;;16.80;99.90;;;;;;4960695;28;20223;-81
2023/05/26 12:46:12;;;;;;;5.00;1.43;;;16.70;99.90;;;;;;4959756;28;20211;-82
2023/05/26 12:48:38;;;;;;;7.27;1.13;;;16.60;99.90;;;;;;4992614;28;20285;-81
2023/05/26 12:51:05;;;;;;;5.17;1.97;;;16.90;99.90;;;;;;4992759;28;20816;-83